createdAt,value
2018-05-09T00:00:07.338Z,4.10
2018-05-09T00:02:34.893Z,3.00
2018-05-09T00:05:03.225Z,3.17
2018-05-09T00:07:30.775Z,3.80
2018-05-09T00:09:58.346Z,3.27
2018-05-09T00:12:25.890Z,3.40
2018-05-09T00:14:53.459Z,3.17
2018-05-09T00:17:20.999Z,3.30
2018-05-09T00:19:48.563Z,3.17
2018-05-09T00:22:16.108Z,2.70
2018-05-09T00:24:43.684Z,3.53
2018-05-09T00:27:11.222Z,3.40
2018-05-09T00:29:38.782Z,3.30
2018-05-09T00:32:06.336Z,3.47
2018-05-09T00:34:33.916Z,2.80
2018-05-09T00:37:02.223Z,3.77
2018-05-09T00:39:29.795Z,2.83
2018-05-09T00:41:58.110Z,3.53
2018-05-09T00:44:25.679Z,3.80
2018-05-09T00:46:53.287Z,3.23
2018-05-09T00:49:20.819Z,3.30
2018-05-09T00:51:48.358Z,2.93
2018-05-09T00:54:27.775Z,3.23
2018-05-09T00:56:55.318Z,2.97
2018-05-09T00:59:22.890Z,3.10
2018-05-09T01:01:50.676Z,3.80
2018-05-09T01:04:18.314Z,3.30
2018-05-09T01:06:45.856Z,4.00
2018-05-09T01:09:13.394Z,3.97
2018-05-09T01:11:40.956Z,3.77
2018-05-09T01:14:08.499Z,3.30
2018-05-09T01:16:36.060Z,3.20
2018-05-09T01:19:04.374Z,3.73
2018-05-09T01:21:31.944Z,3.87
2018-05-09T01:24:00.289Z,3.60
2018-05-09T01:26:27.830Z,3.50
2018-05-09T01:28:56.149Z,3.80
2018-05-09T01:31:23.795Z,4.40
2018-05-09T01:33:51.291Z,3.90
2018-05-09T01:36:18.867Z,4.00
2018-05-09T01:38:46.421Z,4.10
2018-05-09T01:41:13.996Z,4.23
2018-05-09T01:43:41.546Z,4.30
2018-05-09T01:46:09.112Z,4.60
2018-05-09T01:48:37.432Z,4.60
2018-05-09T01:51:04.997Z,4.23
2018-05-09T01:53:33.320Z,4.33
2018-05-09T01:56:00.884Z,4.23
2018-05-09T01:58:29.196Z,4.60
2018-05-09T02:00:57.532Z,4.87
2018-05-09T02:03:25.080Z,4.80
2018-05-09T02:05:53.417Z,3.83
2018-05-09T02:08:20.967Z,4.60
2018-05-09T02:10:49.305Z,5.00
2018-05-09T02:13:16.857Z,4.90
2018-05-09T02:15:44.424Z,4.50
2018-05-09T02:18:12.755Z,4.30
2018-05-09T02:20:40.315Z,4.67
2018-05-09T02:23:08.653Z,4.33
2018-05-09T02:25:36.208Z,4.53
2018-05-09T02:28:04.548Z,4.43
2018-05-09T02:30:32.099Z,4.87
2018-05-09T02:33:00.433Z,5.27
2018-05-09T02:35:27.982Z,5.23
2018-05-09T02:37:56.322Z,5.00
2018-05-09T02:40:23.871Z,6.40
2018-05-09T02:42:51.451Z,4.83
2018-05-09T02:45:19.017Z,9.27
2018-05-09T02:47:46.598Z,6.17
2018-05-09T02:50:14.177Z,6.87
2018-05-09T02:52:41.752Z,5.73
2018-05-09T02:55:09.323Z,5.13
2018-05-09T02:57:36.887Z,5.63
2018-05-09T03:00:04.441Z,5.57
2018-05-09T03:02:32.775Z,5.47
2018-05-09T03:05:00.332Z,5.73
2018-05-09T03:07:28.671Z,5.80
2018-05-09T03:09:56.991Z,5.70
2018-05-09T03:12:24.563Z,6.07
2018-05-09T03:14:52.128Z,6.10
2018-05-09T03:17:19.699Z,5.80
2018-05-09T03:19:47.268Z,5.60
2018-05-09T03:22:15.638Z,6.10
2018-05-09T03:24:43.197Z,6.17
2018-05-09T03:27:10.774Z,5.23
2018-05-09T03:29:38.328Z,6.33
2018-05-09T03:32:05.916Z,6.40
2018-05-09T03:34:34.239Z,6.30
2018-05-09T03:37:02.564Z,6.50
2018-05-09T03:39:30.137Z,6.20
2018-05-09T03:41:57.693Z,6.10
2018-05-09T03:44:25.267Z,7.00
2018-05-09T03:46:53.591Z,5.97
2018-05-09T03:49:21.164Z,5.83
2018-05-09T03:51:48.715Z,6.10
2018-05-09T03:54:16.295Z,6.30
2018-05-09T03:56:43.848Z,6.00
2018-05-09T03:59:11.431Z,5.30
2018-05-09T04:01:50.808Z,5.50
2018-05-09T04:04:30.051Z,5.47
2018-05-09T04:07:09.388Z,5.27
2018-05-09T04:09:48.724Z,5.00
2018-05-09T04:12:16.325Z,5.33
2018-05-09T04:14:44.749Z,5.50
2018-05-09T04:17:12.247Z,4.83
2018-05-09T04:19:39.819Z,4.73
2018-05-09T04:22:07.367Z,4.50
2018-05-09T04:24:34.940Z,5.53
2018-05-09T04:27:02.484Z,4.27
2018-05-09T04:29:30.058Z,5.23
2018-05-09T04:31:58.664Z,5.90
2018-05-09T04:34:26.244Z,5.07
2018-05-09T04:36:53.796Z,5.33
2018-05-09T04:39:21.369Z,4.80
2018-05-09T04:41:48.928Z,5.10
2018-05-09T04:44:16.497Z,5.10
2018-05-09T04:46:44.057Z,5.33
2018-05-09T04:49:11.708Z,4.87
2018-05-09T04:51:39.212Z,4.73
2018-05-09T04:54:07.538Z,5.00
2018-05-09T04:56:35.108Z,4.73
2018-05-09T04:59:03.423Z,4.40
2018-05-09T05:01:30.996Z,5.40
2018-05-09T05:03:58.561Z,4.77
2018-05-09T05:06:26.135Z,4.60
2018-05-09T05:08:53.684Z,5.60
2018-05-09T05:11:21.257Z,5.50
2018-05-09T05:13:48.881Z,4.50
2018-05-09T05:16:16.452Z,4.37
2018-05-09T05:18:44.008Z,4.40
2018-05-09T05:21:11.579Z,4.87
2018-05-09T05:23:39.130Z,4.67
2018-05-09T05:26:06.699Z,5.50
2018-05-09T05:28:34.255Z,5.10
2018-05-09T05:31:01.832Z,4.67
2018-05-09T05:33:29.383Z,5.10
2018-05-09T05:35:57.716Z,5.33
2018-05-09T05:38:25.273Z,5.53
2018-05-09T05:40:53.604Z,5.60
2018-05-09T05:43:21.155Z,5.07
2018-05-09T05:45:49.487Z,5.77
2018-05-09T05:48:17.040Z,5.37
2018-05-09T05:50:45.382Z,5.03
2018-05-09T05:53:12.941Z,5.20
2018-05-09T05:55:40.511Z,5.33
2018-05-09T05:58:08.840Z,5.17
2018-05-09T06:00:36.416Z,5.10
2018-05-09T06:03:03.964Z,5.40
2018-05-09T06:05:31.527Z,5.27
2018-05-09T06:07:59.893Z,5.90
2018-05-09T06:10:28.184Z,5.00
2018-05-09T06:12:55.753Z,5.03
2018-05-09T06:15:24.077Z,5.27
2018-05-09T06:17:51.657Z,4.67
2018-05-09T06:20:19.207Z,5.23
2018-05-09T06:22:46.778Z,4.70
2018-05-09T06:25:14.340Z,5.30
2018-05-09T06:27:41.908Z,5.40
2018-05-09T06:30:09.470Z,5.17
2018-05-09T06:32:37.060Z,5.30
2018-05-09T06:35:04.617Z,5.73
2018-05-09T06:37:39.163Z,5.40
2018-05-09T06:40:06.724Z,5.57
2018-05-09T06:42:34.304Z,4.80
2018-05-09T06:45:01.872Z,5.40
2018-05-09T06:47:29.449Z,5.30
2018-05-09T06:49:57.007Z,5.00
2018-05-09T06:52:24.601Z,4.97
2018-05-09T06:54:52.151Z,4.90
2018-05-09T06:57:19.730Z,5.00
2018-05-09T06:59:47.293Z,4.43
2018-05-09T07:02:14.864Z,5.20
2018-05-09T07:04:42.429Z,5.10
2018-05-09T07:07:10.032Z,4.47
2018-05-09T07:09:37.596Z,5.00
2018-05-09T07:12:05.167Z,5.50
2018-05-09T07:14:33.574Z,5.27
2018-05-09T07:17:01.836Z,4.70
2018-05-09T07:19:29.392Z,4.67
2018-05-09T07:21:56.965Z,4.17
2018-05-09T07:24:24.535Z,5.50
2018-05-09T07:26:52.080Z,4.47
2018-05-09T07:29:19.640Z,4.70
2018-05-09T07:31:47.988Z,5.03
2018-05-09T07:34:16.322Z,4.90
2018-05-09T07:36:43.880Z,4.87
2018-05-09T07:39:11.460Z,5.00
2018-05-09T07:41:39.776Z,5.03
2018-05-09T07:44:07.351Z,4.47
2018-05-09T07:46:34.907Z,4.63
2018-05-09T07:49:02.486Z,4.23
2018-05-09T07:51:30.073Z,4.83
2018-05-09T07:53:57.650Z,4.87
2018-05-09T07:56:25.208Z,5.07
2018-05-09T07:58:52.779Z,5.07
2018-05-09T08:01:20.339Z,4.40
2018-05-09T08:03:48.682Z,4.13
2018-05-09T08:06:16.237Z,4.80
2018-05-09T08:08:43.812Z,4.50
2018-05-09T08:11:11.368Z,4.57
2018-05-09T08:13:38.956Z,5.57
2018-05-09T08:16:07.279Z,4.23
2018-05-09T08:18:35.621Z,4.30
2018-05-09T08:21:03.180Z,4.00
2018-05-09T08:23:30.786Z,4.37
2018-05-09T08:25:58.331Z,4.50
2018-05-09T08:28:25.912Z,4.13
2018-05-09T08:30:54.228Z,3.93
2018-05-09T08:33:21.800Z,4.13
2018-05-09T08:35:50.121Z,5.00
2018-05-09T08:38:17.681Z,4.90
2018-05-09T08:40:46.023Z,4.50
2018-05-09T08:43:13.648Z,4.40
2018-05-09T08:45:41.176Z,3.83
2018-05-09T08:48:08.732Z,4.70
2018-05-09T08:50:37.068Z,3.80
2018-05-09T08:53:04.624Z,3.80
2018-05-09T08:55:33.023Z,3.43
2018-05-09T08:58:00.785Z,3.90
2018-05-09T09:00:28.546Z,4.00
2018-05-09T09:02:56.346Z,4.83
2018-05-09T09:05:24.154Z,3.20
2018-05-09T09:07:51.917Z,3.20
2018-05-09T09:10:19.763Z,3.27
2018-05-09T09:12:47.543Z,3.43
2018-05-09T09:15:15.357Z,3.57
2018-05-09T09:17:43.842Z,3.63
2018-05-09T09:20:12.265Z,3.37
2018-05-09T09:22:40.056Z,3.50
2018-05-09T09:25:07.891Z,3.27
2018-05-09T09:27:35.632Z,3.40
2018-05-09T09:30:03.500Z,3.40
2018-05-09T09:32:32.198Z,3.30
2018-05-09T09:35:00.813Z,3.60
2018-05-09T09:37:28.527Z,3.10
2018-05-09T09:39:56.344Z,3.20
2018-05-09T09:42:24.007Z,3.47
2018-05-09T09:44:52.553Z,2.80
2018-05-09T09:47:20.310Z,2.43
2018-05-09T09:49:48.155Z,3.00
2018-05-09T09:52:15.992Z,3.10
2018-05-09T09:54:43.795Z,3.00
2018-05-09T09:57:12.432Z,3.20
2018-05-09T09:59:40.996Z,2.80
2018-05-09T10:02:08.706Z,2.87
2018-05-09T10:04:36.413Z,3.00
2018-05-09T10:07:04.956Z,3.17
2018-05-09T10:09:32.721Z,2.70
2018-05-09T10:12:01.084Z,2.40
2018-05-09T10:14:28.637Z,2.80
2018-05-09T10:16:56.993Z,2.90
2018-05-09T10:19:24.543Z,2.67
2018-05-09T10:21:52.112Z,2.40
2018-05-09T10:24:19.668Z,2.20
2018-05-09T10:26:47.236Z,2.37
2018-05-09T10:29:14.796Z,1.90
2018-05-09T10:31:42.381Z,1.67
2018-05-09T10:34:09.930Z,1.60
2018-05-09T10:36:38.260Z,1.80
2018-05-09T10:39:05.816Z,2.20
2018-05-09T10:41:34.151Z,3.07
2018-05-09T10:44:02.519Z,1.90
2018-05-09T10:46:30.849Z,1.80
2018-05-09T10:48:58.401Z,2.17
2018-05-09T10:51:26.745Z,1.93
2018-05-09T10:53:54.292Z,2.00
2018-05-09T10:56:22.654Z,1.70
2018-05-09T10:58:50.203Z,2.00
2018-05-09T11:01:17.777Z,1.80
2018-05-09T11:03:45.336Z,2.30
2018-05-09T11:06:13.677Z,1.67
2018-05-09T11:08:41.236Z,1.93
2018-05-09T11:11:09.572Z,1.87
2018-05-09T11:13:37.119Z,1.67
2018-05-09T11:16:05.441Z,1.33
2018-05-09T11:18:33.020Z,2.30
2018-05-09T11:21:00.580Z,2.23
2018-05-09T11:23:28.912Z,2.10
2018-05-09T11:25:56.469Z,1.67
2018-05-09T11:28:24.808Z,2.07
2018-05-09T11:30:52.363Z,2.20
2018-05-09T11:33:20.709Z,1.90
2018-05-09T11:35:48.262Z,2.50
2018-05-09T11:38:15.836Z,1.90
2018-05-09T11:40:44.151Z,2.00
2018-05-09T11:43:11.714Z,2.37
2018-05-09T11:45:40.033Z,2.60
2018-05-09T11:48:07.609Z,1.77
2018-05-09T11:50:35.924Z,2.00
2018-05-09T11:53:03.528Z,2.13
2018-05-09T11:55:31.075Z,2.00
2018-05-09T11:57:58.652Z,2.00
2018-05-09T12:00:26.977Z,2.37
2018-05-09T12:02:54.544Z,1.97
2018-05-09T12:05:22.877Z,2.50
2018-05-09T12:07:50.447Z,1.90
2018-05-09T12:10:18.019Z,2.40
2018-05-09T12:12:46.377Z,2.07
2018-05-09T12:15:14.704Z,2.03
2018-05-09T12:17:42.280Z,2.23
2018-05-09T12:20:09.833Z,1.93
2018-05-09T12:22:37.404Z,2.70
2018-05-09T12:25:04.952Z,2.10
2018-05-09T12:27:33.308Z,2.77
2018-05-09T12:30:00.861Z,2.53
2018-05-09T12:32:28.409Z,2.33
2018-05-09T12:34:56.061Z,2.23
2018-05-09T12:37:24.485Z,2.00
2018-05-09T12:39:52.078Z,2.80
2018-05-09T12:42:19.676Z,2.30
2018-05-09T12:44:47.268Z,2.30
2018-05-09T12:47:15.588Z,2.17
2018-05-09T12:49:43.151Z,1.80
2018-05-09T12:52:11.464Z,1.90
2018-05-09T12:54:39.830Z,2.57
2018-05-09T12:57:07.379Z,2.30
2018-05-09T12:59:34.965Z,1.80
2018-05-09T13:02:02.525Z,2.47
2018-05-09T13:04:30.117Z,2.50
2018-05-09T13:06:57.712Z,2.90
2018-05-09T13:09:26.048Z,2.60
2018-05-09T13:11:53.606Z,3.07
2018-05-09T13:14:21.282Z,2.60
2018-05-09T13:16:48.832Z,2.50
2018-05-09T13:19:17.185Z,2.80
2018-05-09T13:21:44.741Z,2.87
2018-05-09T13:24:12.317Z,1.90
2018-05-09T13:26:40.655Z,2.33
2018-05-09T13:29:08.219Z,2.67
2018-05-09T13:31:35.850Z,3.47
2018-05-09T13:34:05.148Z,2.93
2018-05-09T13:36:33.536Z,3.77
2018-05-09T13:39:01.119Z,3.00
2018-05-09T13:41:28.677Z,3.40
2018-05-09T13:43:57.028Z,2.87
2018-05-09T13:46:24.691Z,2.53
2018-05-09T13:48:52.188Z,3.13
2018-05-09T13:51:19.756Z,2.40
2018-05-09T13:53:47.317Z,2.80
2018-05-09T13:56:14.906Z,3.30
2018-05-09T13:58:42.460Z,3.00
2018-05-09T14:01:10.036Z,2.83
2018-05-09T14:03:37.648Z,2.70
2018-05-09T14:06:05.188Z,3.27
2018-05-09T14:08:35.621Z,3.00
2018-05-09T14:11:03.208Z,3.00
2018-05-09T14:13:30.843Z,3.23
2018-05-09T14:15:58.515Z,2.97
2018-05-09T14:18:26.087Z,4.87
2018-05-09T14:20:53.726Z,3.27
2018-05-09T14:23:22.045Z,5.07
2018-05-09T14:25:49.616Z,3.90
2018-05-09T14:28:17.934Z,4.30
2018-05-09T14:30:45.513Z,4.23
2018-05-09T14:33:13.076Z,3.57
2018-05-09T14:35:42.411Z,3.37
2018-05-09T14:38:10.131Z,3.23
2018-05-09T14:40:37.738Z,3.30
2018-05-09T14:43:05.296Z,3.10
2018-05-09T14:45:32.867Z,3.23
2018-05-09T14:48:00.424Z,3.20
2018-05-09T14:50:28.005Z,3.60
2018-05-09T14:52:55.555Z,3.47
2018-05-09T14:55:23.184Z,3.10
2018-05-09T14:57:51.569Z,4.30
2018-05-09T15:00:19.227Z,3.20
2018-05-09T15:02:46.711Z,2.63
2018-05-09T15:05:14.282Z,2.93
2018-05-09T15:07:41.860Z,3.40
2018-05-09T15:10:09.421Z,3.10
2018-05-09T15:12:37.039Z,5.03
2018-05-09T15:15:04.596Z,7.33
2018-05-09T15:17:32.187Z,3.40
2018-05-09T15:19:59.749Z,3.70
2018-05-09T15:22:28.099Z,11.23
2018-05-09T15:24:55.648Z,6.37
2018-05-09T15:27:23.989Z,5.07
2018-05-09T15:29:51.555Z,4.17
2018-05-09T15:32:19.131Z,12.03
2018-05-09T15:34:46.684Z,16.93
2018-05-09T15:37:14.252Z,6.43
2018-05-09T15:39:41.849Z,3.73
2018-05-09T15:42:09.424Z,3.10
2018-05-09T15:44:36.976Z,3.20
2018-05-09T15:47:04.562Z,5.93
2018-05-09T15:49:32.299Z,3.70
2018-05-09T15:52:00.740Z,5.67
2018-05-09T15:54:28.232Z,3.40
2018-05-09T15:56:55.804Z,5.37
2018-05-09T15:59:23.356Z,3.40
2018-05-09T16:01:51.696Z,3.40
2018-05-09T16:04:19.244Z,3.37
2018-05-09T16:06:47.576Z,3.03
2018-05-09T16:09:15.123Z,3.47
2018-05-09T16:11:43.457Z,3.80
2018-05-09T16:14:11.033Z,3.40
2018-05-09T16:16:38.600Z,4.57
2018-05-09T16:19:06.183Z,3.50
2018-05-09T16:21:34.499Z,3.10
2018-05-09T16:24:02.079Z,3.13
2018-05-09T16:26:30.414Z,3.33
2018-05-09T16:28:57.987Z,3.40
2018-05-09T16:31:25.539Z,3.47
2018-05-09T16:33:53.881Z,3.20
2018-05-09T16:36:21.443Z,4.20
2018-05-09T16:38:49.029Z,3.43
2018-05-09T16:41:16.650Z,4.43
2018-05-09T16:43:44.219Z,3.50
2018-05-09T16:46:11.827Z,4.10
2018-05-09T16:48:39.451Z,3.67
2018-05-09T16:51:08.516Z,4.97
2018-05-09T16:53:36.268Z,3.70
2018-05-09T16:56:04.583Z,3.67
2018-05-09T16:58:34.141Z,3.60
2018-05-09T17:01:02.725Z,3.27
2018-05-09T17:03:30.296Z,3.10
2018-05-09T17:05:58.625Z,3.20
2018-05-09T17:08:26.959Z,3.57
2018-05-09T17:10:54.511Z,2.83
2018-05-09T17:13:22.097Z,2.70
2018-05-09T17:15:49.649Z,3.10
2018-05-09T17:18:17.983Z,2.67
2018-05-09T17:20:45.527Z,2.70
2018-05-09T17:23:13.864Z,2.53
2018-05-09T17:25:41.429Z,2.80
2018-05-09T17:28:09.003Z,2.40
2018-05-09T17:30:37.376Z,3.10
2018-05-09T17:33:04.925Z,2.97
2018-05-09T17:35:32.500Z,2.97
2018-05-09T17:38:00.056Z,4.93
2018-05-09T17:40:27.626Z,2.87
2018-05-09T17:42:55.207Z,2.70
2018-05-09T17:45:24.085Z,2.73
2018-05-09T17:47:51.645Z,2.93
2018-05-09T17:50:19.224Z,3.53
2018-05-09T17:52:47.543Z,2.60
2018-05-09T17:55:15.116Z,2.30
2018-05-09T17:57:42.668Z,3.03
2018-05-09T18:00:10.242Z,2.80
2018-05-09T18:02:37.816Z,2.50
2018-05-09T18:05:05.396Z,2.70
2018-05-09T18:07:32.948Z,3.30
2018-05-09T18:10:00.524Z,3.33
2018-05-09T18:12:28.166Z,3.70
2018-05-09T18:14:56.447Z,3.10
2018-05-09T18:17:24.004Z,2.87
2018-05-09T18:19:51.581Z,2.50
2018-05-09T18:22:19.128Z,3.63
2018-05-09T18:24:46.716Z,3.00
2018-05-09T18:27:14.276Z,2.60
2018-05-09T18:29:41.856Z,2.73
2018-05-09T18:32:09.412Z,3.30
2018-05-09T18:34:36.984Z,3.40
2018-05-09T18:37:04.536Z,3.17
2018-05-09T18:39:32.099Z,2.80
2018-05-09T18:41:59.723Z,2.90
2018-05-09T18:44:28.087Z,3.07
2018-05-09T18:46:56.624Z,3.07
2018-05-09T18:49:24.987Z,3.50
2018-05-09T18:51:52.547Z,3.00
2018-05-09T18:54:20.120Z,2.60
2018-05-09T18:56:48.000Z,3.60
2018-05-09T18:59:15.746Z,3.00
2018-05-09T19:01:44.119Z,2.90
2018-05-09T19:04:11.677Z,2.60
2018-05-09T19:06:39.263Z,2.73
2018-05-09T19:09:06.817Z,2.57
2018-05-09T19:11:34.392Z,2.87
2018-05-09T19:14:01.949Z,2.93
2018-05-09T19:16:29.525Z,3.10
2018-05-09T19:18:57.077Z,2.70
2018-05-09T19:21:25.428Z,3.20
2018-05-09T19:23:53.747Z,3.47
2018-05-09T19:26:21.324Z,2.90
2018-05-09T19:28:48.912Z,3.20
2018-05-09T19:31:16.475Z,3.07
2018-05-09T19:33:44.037Z,3.37
2018-05-09T19:36:11.615Z,3.60
2018-05-09T19:38:39.225Z,3.33
2018-05-09T19:41:06.765Z,3.33
2018-05-09T19:43:35.093Z,3.37
2018-05-09T19:46:02.671Z,3.07
2018-05-09T19:48:30.223Z,3.00
2018-05-09T19:50:57.899Z,3.00
2018-05-09T19:53:25.516Z,3.43
2018-05-09T19:55:53.856Z,3.10
2018-05-09T19:58:21.419Z,3.53
2018-05-09T20:00:48.993Z,3.40
2018-05-09T20:03:17.559Z,4.30
2018-05-09T20:05:45.160Z,3.90
2018-05-09T20:08:12.717Z,4.33
2018-05-09T20:10:40.272Z,3.27
2018-05-09T20:13:07.862Z,4.10
2018-05-09T20:15:35.419Z,3.90
2018-05-09T20:18:03.751Z,3.67
2018-05-09T20:20:31.300Z,3.13
2018-05-09T20:22:59.644Z,3.37
2018-05-09T20:25:27.191Z,3.27
2018-05-09T20:27:54.763Z,3.50
2018-05-09T20:30:28.628Z,3.73
2018-05-09T20:32:56.209Z,4.10
2018-05-09T20:35:23.756Z,3.67
2018-05-09T20:37:51.329Z,3.30
2018-05-09T20:40:18.884Z,3.30
2018-05-09T20:42:46.498Z,3.20
2018-05-09T20:45:14.688Z,4.17
2018-05-09T20:47:43.514Z,3.50
2018-05-09T20:50:19.605Z,3.67
2018-05-09T20:52:47.964Z,3.97
2018-05-09T20:55:27.879Z,4.20
2018-05-09T20:57:56.239Z,4.10
2018-05-09T21:00:23.887Z,4.90
2018-05-09T21:02:52.285Z,4.80
2018-05-09T21:05:19.840Z,5.30
2018-05-09T21:07:58.201Z,4.60
2018-05-09T21:10:25.839Z,4.20
2018-05-09T21:12:53.415Z,4.40
2018-05-09T21:15:20.982Z,4.43
2018-05-09T21:17:49.321Z,4.60
2018-05-09T21:20:17.694Z,4.00
2018-05-09T21:22:45.358Z,4.60
2018-05-09T21:25:13.691Z,5.13
2018-05-09T21:27:41.325Z,4.40
2018-05-09T21:30:08.859Z,5.43
2018-05-09T21:32:36.420Z,3.80
2018-05-09T21:35:04.770Z,4.60
2018-05-09T21:37:32.334Z,4.47
2018-05-09T21:39:59.955Z,4.57
2018-05-09T21:42:27.515Z,4.23
2018-05-09T21:44:55.114Z,5.23
2018-05-09T21:47:22.678Z,4.77
2018-05-09T21:49:50.265Z,4.10
2018-05-09T21:52:18.017Z,4.40
2018-05-09T21:54:46.403Z,4.47
2018-05-09T21:57:13.961Z,4.63
2018-05-09T21:59:41.547Z,4.37
2018-05-09T22:02:09.120Z,4.60
2018-05-09T22:04:36.708Z,4.50
2018-05-09T22:07:04.279Z,4.70
2018-05-09T22:09:31.866Z,4.57
2018-05-09T22:11:59.419Z,4.43
2018-05-09T22:14:26.992Z,4.50
2018-05-09T22:16:55.315Z,4.80
2018-05-09T22:19:22.900Z,5.23
2018-05-09T22:21:50.456Z,5.30
2018-05-09T22:24:18.041Z,4.80
2018-05-09T22:26:47.009Z,4.50
2018-05-09T22:29:14.653Z,4.20
2018-05-09T22:31:42.185Z,4.30
2018-05-09T22:34:09.759Z,5.30
2018-05-09T22:36:37.356Z,4.60
2018-05-09T22:39:04.952Z,5.43
2018-05-09T22:41:32.517Z,4.70
2018-05-09T22:44:00.074Z,5.20
2018-05-09T22:46:27.665Z,5.60
2018-05-09T22:48:55.234Z,5.10
2018-05-09T22:51:23.576Z,5.33
2018-05-09T22:53:51.138Z,5.73
2018-05-09T22:56:18.732Z,5.83
2018-05-09T22:58:47.081Z,5.80
2018-05-09T23:01:14.664Z,5.70
2018-05-09T23:03:42.246Z,5.50
2018-05-09T23:06:09.823Z,5.70
2018-05-09T23:08:37.392Z,5.60
2018-05-09T23:11:04.969Z,5.30
2018-05-09T23:13:32.539Z,5.57
2018-05-09T23:16:00.220Z,5.53
2018-05-09T23:18:27.785Z,5.67
2018-05-09T23:20:56.136Z,5.17
2018-05-09T23:23:23.697Z,6.10
2018-05-09T23:25:51.281Z,5.20
2018-05-09T23:28:18.836Z,5.17
2018-05-09T23:30:46.466Z,4.97
2018-05-09T23:33:14.024Z,6.80
2018-05-09T23:35:41.601Z,5.87
2018-05-09T23:38:09.225Z,5.40
2018-05-09T23:40:36.812Z,5.67
2018-05-09T23:43:04.378Z,5.70
2018-05-09T23:45:31.952Z,6.10
2018-05-09T23:47:59.510Z,6.20
2018-05-09T23:50:27.861Z,6.63
2018-05-09T23:52:55.426Z,7.03
2018-05-09T23:55:23.797Z,6.90
2018-05-09T23:57:52.120Z,5.87
